Terminal Aerodrome Forecast
Issued by NWS

Home | Current Version | Previous Version | Text Only | Print | Product List | Glossary On
Versions: 1 2 3 4 5 6 7 8 9 10 11 12 13 14 15 16 17 18 19 20 21 22 23 24 25 26 27 28 29 30 31 32 33 34 35 36 37 38 39 40
000
FTUS44 KHGX 201728
TAFUTS
TAF
KUTS 201728Z 2018/2118 36004KT P6SM OVC005
     FM202000 03003KT P6SM BKN010
     FM210300 00000KT P6SM OVC008
     FM211100 00000KT 6SM BR OVC005=

USA.gov is the U.S. government's official web portal to all federal, state and local government web resources and services.